createdAt,value
2023-05-02T00:02:06.244Z,10.10
2023-05-02T00:04:34.140Z,10.10
2023-05-02T00:07:03.206Z,10.10
2023-05-02T00:09:31.023Z,10.00
2023-05-02T00:11:58.701Z,10.00
2023-05-02T00:14:26.720Z,10.00
2023-05-02T00:16:54.604Z,10.10
2023-05-02T00:19:22.277Z,10.20
2023-05-02T00:21:50.182Z,10.20
2023-05-02T00:24:19.992Z,10.20
2023-05-02T00:26:47.718Z,10.20
2023-05-02T00:29:15.459Z,10.30
2023-05-02T00:31:43.473Z,10.40
2023-05-02T00:34:11.294Z,10.40
2023-05-02T00:36:39.036Z,10.40
2023-05-02T00:39:06.714Z,10.40
2023-05-02T00:41:35.740Z,10.40
2023-05-02T00:44:03.711Z,10.40
2023-05-02T00:46:31.743Z,10.50
2023-05-02T00:49:00.054Z,10.50
2023-05-02T00:51:28.803Z,10.50
2023-05-02T00:53:57.685Z,10.50
2023-05-02T00:56:25.380Z,10.50
2023-05-02T00:58:54.972Z,10.50
2023-05-02T01:01:37.946Z,10.40
2023-05-02T01:04:15.470Z,10.40
2023-05-02T01:07:00.600Z,10.30
2023-05-02T01:09:40.757Z,10.30
2023-05-02T01:12:19.897Z,10.20
2023-05-02T01:14:54.786Z,10.10
2023-05-02T01:17:25.702Z,10.10
2023-05-02T01:19:57.087Z,10.10
2023-05-02T01:22:27.368Z,10.10
2023-05-02T01:25:03.312Z,10.10
2023-05-02T01:27:41.265Z,10.10
2023-05-02T01:30:12.560Z,10.00
2023-05-02T01:32:42.448Z,10.00
2023-05-02T01:35:12.029Z,10.00
2023-05-02T01:37:41.815Z,10.00
2023-05-02T01:40:11.177Z,9.90
2023-05-02T01:42:40.583Z,9.80
2023-05-02T01:45:11.695Z,9.80
2023-05-02T01:47:41.507Z,9.70
2023-05-02T01:50:12.252Z,9.70
2023-05-02T01:52:41.780Z,9.70
2023-05-02T01:55:13.955Z,9.70
2023-05-02T01:57:45.322Z,9.60
2023-05-02T02:00:18.305Z,9.60
2023-05-02T02:02:48.211Z,9.60
2023-05-02T02:05:18.157Z,9.60
2023-05-02T02:07:46.244Z,9.60
2023-05-02T02:10:14.167Z,9.40
2023-05-02T02:12:46.163Z,9.40
2023-05-02T02:15:22.235Z,9.30
2023-05-02T02:17:56.113Z,9.20
2023-05-02T02:20:23.938Z,9.20
2023-05-02T02:22:52.347Z,9.20
2023-05-02T02:25:21.395Z,9.30
2023-05-02T02:27:50.031Z,9.30
2023-05-02T02:30:19.105Z,9.20
2023-05-02T02:32:46.805Z,9.20
2023-05-02T02:35:14.880Z,9.20
2023-05-02T02:37:48.018Z,9.20
2023-05-02T02:40:22.773Z,9.20
2023-05-02T02:42:57.817Z,9.20
2023-05-02T02:45:38.180Z,9.10
2023-05-02T02:48:16.367Z,9.00
2023-05-02T02:50:51.760Z,9.00
2023-05-02T02:53:26.344Z,9.00
2023-05-02T02:56:00.545Z,9.10
2023-05-02T02:58:37.970Z,9.00
2023-05-02T03:01:12.691Z,9.00
2023-05-02T03:03:41.540Z,9.00
2023-05-02T03:06:11.406Z,9.00
2023-05-02T03:08:41.279Z,9.00
2023-05-02T03:11:11.889Z,9.00
2023-05-02T03:13:39.744Z,9.00
2023-05-02T03:16:30.254Z,9.00
2023-05-02T03:18:57.990Z,8.90
2023-05-02T03:21:25.720Z,8.90
2023-05-02T03:23:54.473Z,8.80
2023-05-02T03:26:22.159Z,8.80
2023-05-02T03:28:51.318Z,8.80
2023-05-02T03:31:28.041Z,8.70
2023-05-02T03:33:55.909Z,8.70
2023-05-02T03:36:23.912Z,8.80
2023-05-02T03:38:54.458Z,8.90
2023-05-02T03:41:22.816Z,9.00
2023-05-02T03:43:56.659Z,9.00
2023-05-02T03:46:27.753Z,9.00
2023-05-02T03:48:58.515Z,9.20
2023-05-02T03:51:26.892Z,9.30
2023-05-02T03:53:57.740Z,9.30
2023-05-02T03:56:25.462Z,9.30
2023-05-02T03:59:03.693Z,9.40
2023-05-02T04:01:32.821Z,9.40
2023-05-02T04:04:03.750Z,9.50
2023-05-02T04:06:36.525Z,9.50
2023-05-02T04:09:07.156Z,9.50
2023-05-02T04:11:43.379Z,9.50
2023-05-02T04:14:13.713Z,9.50
2023-05-02T04:16:49.135Z,9.50
2023-05-02T04:19:24.318Z,9.50
2023-05-02T04:21:54.231Z,9.50
2023-05-02T04:24:22.836Z,9.40
2023-05-02T04:26:50.750Z,9.30
2023-05-02T04:29:18.453Z,9.30
2023-05-02T04:31:49.508Z,9.30
2023-05-02T04:34:17.395Z,9.30
2023-05-02T04:36:47.492Z,9.20
2023-05-02T04:39:20.713Z,9.20
2023-05-02T04:41:58.963Z,9.10
2023-05-02T04:44:29.254Z,9.10
2023-05-02T04:46:59.377Z,9.10
2023-05-02T04:49:27.214Z,9.20
2023-05-02T04:51:54.906Z,9.20
2023-05-02T04:54:24.338Z,9.30
2023-05-02T04:56:52.097Z,9.40
2023-05-02T04:59:20.275Z,9.50
2023-05-02T05:01:50.023Z,9.60
2023-05-02T05:04:20.445Z,9.70
2023-05-02T05:06:49.168Z,9.70
2023-05-02T05:09:17.540Z,9.70
2023-05-02T05:11:46.108Z,9.70
2023-05-02T05:14:15.521Z,9.60
2023-05-02T05:16:47.371Z,9.60
2023-05-02T05:19:15.710Z,9.70
2023-05-02T05:21:44.873Z,9.80
2023-05-02T05:24:15.268Z,9.90
2023-05-02T05:26:43.290Z,10.00
2023-05-02T05:29:11.590Z,10.20
2023-05-02T05:31:42.628Z,10.30
2023-05-02T05:34:12.534Z,10.40
2023-05-02T05:36:41.252Z,10.60
2023-05-02T05:39:10.759Z,10.80
2023-05-02T05:41:41.863Z,10.80
2023-05-02T05:44:11.908Z,10.90
2023-05-02T05:46:39.992Z,10.90
2023-05-02T05:49:10.509Z,10.90
2023-05-02T05:51:38.276Z,11.00
2023-05-02T05:54:07.213Z,11.00
2023-05-02T05:56:37.804Z,11.10
2023-05-02T05:59:12.660Z,11.10
2023-05-02T06:01:42.645Z,11.20
2023-05-02T06:04:12.858Z,11.30
2023-05-02T06:06:43.870Z,11.40
2023-05-02T06:09:11.775Z,11.50
2023-05-02T06:11:40.771Z,11.60
2023-05-02T06:14:10.938Z,12.00
2023-05-02T06:16:41.903Z,12.50
2023-05-02T06:19:11.163Z,12.90
2023-05-02T06:21:41.919Z,13.10
2023-05-02T06:24:10.441Z,13.60
2023-05-02T06:26:39.554Z,14.10
2023-05-02T06:29:09.314Z,14.50
2023-05-02T06:31:38.599Z,14.80
2023-05-02T06:34:06.362Z,15.00
2023-05-02T06:36:35.787Z,14.90
2023-05-02T06:39:06.234Z,14.90
2023-05-02T06:41:33.963Z,14.60
2023-05-02T06:44:03.066Z,14.40
2023-05-02T06:46:31.470Z,14.70
2023-05-02T06:48:59.229Z,14.30
2023-05-02T06:51:27.608Z,14.80
2023-05-02T06:53:59.730Z,15.20
2023-05-02T06:56:27.780Z,15.60
2023-05-02T06:58:57.180Z,15.90
2023-05-02T07:01:26.252Z,16.00
2023-05-02T07:03:54.218Z,15.90
2023-05-02T07:06:23.215Z,15.30
2023-05-02T07:08:52.119Z,15.00
2023-05-02T07:11:22.873Z,15.00
2023-05-02T07:13:53.040Z,15.00
2023-05-02T07:16:21.091Z,14.80
2023-05-02T07:18:50.556Z,14.80
2023-05-02T07:21:20.300Z,14.80
2023-05-02T07:23:49.206Z,15.00
2023-05-02T07:26:18.861Z,15.00
2023-05-02T07:28:49.350Z,15.00
2023-05-02T07:31:19.148Z,15.00
2023-05-02T07:33:46.848Z,15.10
2023-05-02T07:36:17.197Z,15.20
2023-05-02T07:38:47.768Z,15.30
2023-05-02T07:41:17.009Z,15.60
2023-05-02T07:43:44.682Z,15.90
2023-05-02T07:46:13.567Z,16.00
2023-05-02T07:48:44.494Z,16.00
2023-05-02T07:51:15.736Z,16.10
2023-05-02T07:53:44.755Z,16.40
2023-05-02T07:56:12.642Z,16.70
2023-05-02T07:58:41.881Z,16.90
2023-05-02T08:01:09.577Z,17.20
2023-05-02T08:03:38.560Z,17.40
2023-05-02T08:06:09.803Z,17.60
2023-05-02T08:08:38.896Z,17.70
2023-05-02T08:11:06.821Z,17.90
2023-05-02T08:13:34.570Z,18.00
2023-05-02T08:16:02.637Z,18.20
2023-05-02T08:18:30.380Z,18.30
2023-05-02T08:20:58.675Z,18.50
2023-05-02T08:23:26.409Z,18.60
2023-05-02T08:25:55.557Z,18.80
2023-05-02T08:28:23.366Z,18.80
2023-05-02T08:30:51.399Z,18.20
2023-05-02T08:33:19.183Z,18.70
2023-05-02T08:35:46.923Z,19.60
2023-05-02T08:38:14.663Z,20.70
2023-05-02T08:40:43.433Z,21.20
2023-05-02T08:43:14.367Z,22.80
2023-05-02T08:45:43.257Z,24.00
2023-05-02T08:48:13.200Z,24.80
2023-05-02T08:50:43.298Z,25.50
2023-05-02T08:53:12.342Z,26.30
2023-05-02T08:55:42.239Z,27.40
2023-05-02T08:58:11.539Z,28.30
2023-05-02T09:00:49.410Z,28.90
2023-05-02T09:03:27.249Z,29.20
2023-05-02T09:06:02.508Z,29.00
2023-05-02T09:08:30.313Z,28.50
2023-05-02T09:10:58.879Z,27.40
2023-05-02T09:13:31.122Z,26.70
2023-05-02T09:16:05.998Z,25.90
2023-05-02T09:18:35.363Z,25.20
2023-05-02T09:21:08.671Z,24.30
2023-05-02T09:23:38.690Z,23.60
2023-05-02T09:26:18.510Z,22.90
2023-05-02T09:28:47.768Z,22.80
2023-05-02T09:31:26.959Z,23.20
2023-05-02T09:34:10.841Z,23.60
2023-05-02T09:36:41.548Z,22.10
2023-05-02T09:39:13.259Z,22.30
2023-05-02T09:41:41.663Z,22.60
2023-05-02T09:44:11.973Z,22.80
2023-05-02T09:46:43.113Z,22.70
2023-05-02T09:49:11.490Z,22.00
2023-05-02T09:51:39.176Z,22.10
2023-05-02T09:54:09.219Z,22.60
2023-05-02T09:56:53.146Z,23.00
2023-05-02T09:59:25.611Z,23.50
2023-05-02T10:01:58.968Z,23.40
2023-05-02T10:04:28.987Z,23.40
2023-05-02T10:06:57.250Z,23.70
2023-05-02T10:09:30.054Z,24.30
2023-05-02T10:11:57.873Z,25.00
2023-05-02T10:14:29.553Z,25.90
2023-05-02T10:17:02.561Z,26.30
2023-05-02T10:19:34.449Z,26.30
2023-05-02T10:22:04.673Z,26.30
2023-05-02T10:24:33.648Z,27.00
2023-05-02T10:27:03.163Z,27.00
2023-05-02T10:29:33.000Z,26.30
2023-05-02T10:32:04.272Z,27.30
2023-05-02T10:34:33.733Z,28.60
2023-05-02T10:37:08.257Z,29.60
2023-05-02T10:39:37.549Z,30.80
2023-05-02T10:42:08.931Z,31.40
2023-05-02T10:44:40.771Z,30.00
2023-05-02T10:47:27.879Z,30.30
2023-05-02T10:50:01.384Z,29.80
2023-05-02T10:52:31.592Z,29.80
2023-05-02T10:55:17.549Z,30.30
2023-05-02T10:58:17.472Z,31.80
2023-05-02T11:00:47.995Z,32.60
2023-05-02T11:03:51.984Z,32.40
2023-05-02T11:06:19.876Z,33.10
2023-05-02T11:08:47.653Z,33.50
2023-05-02T11:11:45.193Z,34.20
2023-05-02T11:14:33.667Z,33.00
2023-05-02T11:17:11.407Z,31.30
2023-05-02T11:20:08.997Z,29.40
2023-05-02T11:22:36.916Z,29.40
2023-05-02T11:25:05.874Z,30.10
2023-05-02T11:27:41.292Z,30.80
2023-05-02T11:30:10.055Z,31.70
2023-05-02T11:33:08.290Z,32.70
2023-05-02T11:35:43.390Z,32.60
2023-05-02T11:38:12.964Z,33.30
2023-05-02T11:40:41.970Z,33.20
2023-05-02T11:43:16.495Z,33.40
2023-05-02T11:45:46.809Z,34.10
2023-05-02T11:48:17.023Z,34.30
2023-05-02T11:50:50.116Z,33.90
2023-05-02T11:53:23.239Z,34.00
2023-05-02T11:55:52.740Z,33.60
2023-05-02T11:58:22.237Z,33.50
2023-05-02T12:00:51.547Z,32.70
2023-05-02T12:03:22.299Z,31.90
2023-05-02T12:05:52.221Z,30.40
2023-05-02T12:08:21.800Z,29.10
2023-05-02T12:10:51.744Z,27.70
2023-05-02T12:13:20.474Z,26.50
2023-05-02T12:15:49.284Z,25.60
2023-05-02T12:18:20.677Z,25.00
2023-05-02T12:20:52.405Z,24.40
2023-05-02T12:23:23.373Z,23.80
2023-05-02T12:25:56.123Z,23.00
2023-05-02T12:28:24.727Z,22.90
2023-05-02T12:30:55.963Z,22.80
2023-05-02T12:33:27.355Z,22.30
2023-05-02T12:36:08.265Z,22.60
2023-05-02T12:38:37.209Z,22.60
2023-05-02T12:41:06.762Z,22.90
2023-05-02T12:43:46.498Z,22.70
2023-05-02T12:46:14.252Z,22.50
2023-05-02T12:48:42.000Z,22.40
2023-05-02T12:51:24.164Z,22.20
2023-05-02T12:53:51.930Z,21.90
2023-05-02T12:56:20.692Z,22.00
2023-05-02T12:58:49.754Z,22.00
2023-05-02T13:01:17.758Z,22.20
2023-05-02T13:03:45.604Z,22.40
2023-05-02T13:06:13.370Z,22.60
2023-05-02T13:08:42.561Z,22.20
2023-05-02T13:11:10.379Z,22.00
2023-05-02T13:13:38.133Z,21.90
2023-05-02T13:16:06.275Z,22.10
2023-05-02T13:18:34.070Z,21.90
2023-05-02T13:21:01.812Z,21.90
2023-05-02T13:23:29.548Z,21.90
2023-05-02T13:25:58.941Z,21.90
2023-05-02T13:28:26.791Z,21.70
2023-05-02T13:30:54.624Z,21.50
2023-05-02T13:33:22.415Z,21.60
2023-05-02T13:35:50.081Z,21.60
2023-05-02T13:38:17.860Z,21.60
2023-05-02T13:40:46.129Z,21.60
2023-05-02T13:43:15.264Z,21.60
2023-05-02T13:45:42.968Z,21.50
2023-05-02T13:48:10.750Z,21.40
2023-05-02T13:50:39.040Z,21.30
2023-05-02T13:53:06.880Z,21.30
2023-05-02T13:55:34.612Z,21.20
2023-05-02T13:58:02.737Z,21.20
2023-05-02T14:00:31.759Z,21.00
2023-05-02T14:02:59.588Z,20.80
2023-05-02T14:05:27.397Z,20.80
2023-05-02T14:07:55.253Z,20.70
2023-05-02T14:10:22.919Z,20.80
2023-05-02T14:12:50.623Z,20.70
2023-05-02T14:15:18.358Z,20.80
2023-05-02T14:17:47.427Z,20.90
2023-05-02T14:20:15.327Z,21.10
2023-05-02T14:22:43.056Z,21.20
2023-05-02T14:25:10.999Z,21.30
2023-05-02T14:27:38.823Z,21.10
2023-05-02T14:30:07.497Z,21.00
2023-05-02T14:32:37.794Z,20.90
2023-05-02T14:35:08.723Z,21.10
2023-05-02T14:37:39.332Z,21.10
2023-05-02T14:40:08.107Z,21.10
2023-05-02T14:42:35.928Z,21.10
2023-05-02T14:45:03.798Z,21.00
2023-05-02T14:47:31.872Z,21.00
2023-05-02T14:50:00.081Z,21.10
2023-05-02T14:52:29.439Z,20.80
2023-05-02T14:54:59.792Z,20.80
2023-05-02T14:57:28.483Z,20.70
2023-05-02T14:59:56.220Z,20.60
2023-05-02T15:02:24.080Z,20.60
2023-05-02T15:04:52.217Z,20.50
2023-05-02T15:07:20.075Z,20.50
2023-05-02T15:09:49.145Z,20.40
2023-05-02T15:12:16.868Z,20.20
2023-05-02T15:14:44.686Z,20.20
2023-05-02T15:17:13.073Z,20.20
2023-05-02T15:19:40.829Z,20.20
2023-05-02T15:22:08.535Z,19.90
2023-05-02T15:24:36.449Z,19.80
2023-05-02T15:27:05.489Z,19.70
2023-05-02T15:29:33.284Z,19.60
2023-05-02T15:32:01.017Z,19.60
2023-05-02T15:34:29.059Z,19.60
2023-05-02T15:36:57.969Z,19.60
2023-05-02T15:39:27.786Z,19.60
2023-05-02T15:41:55.480Z,19.60
2023-05-02T15:44:26.022Z,19.70
2023-05-02T15:46:55.761Z,19.70
2023-05-02T15:49:24.372Z,19.60
2023-05-02T15:51:52.065Z,19.50
2023-05-02T15:54:19.805Z,19.50
2023-05-02T15:56:47.452Z,19.50
2023-05-02T15:59:15.191Z,19.50
2023-05-02T16:01:44.207Z,19.40
2023-05-02T16:04:12.028Z,19.30
2023-05-02T16:06:41.131Z,19.40
2023-05-02T16:09:09.968Z,19.40
2023-05-02T16:11:37.811Z,19.40
2023-05-02T16:14:05.559Z,19.40
2023-05-02T16:16:36.254Z,19.50
2023-05-02T16:19:12.473Z,19.40
2023-05-02T16:21:41.798Z,19.50
2023-05-02T16:24:11.052Z,19.40
2023-05-02T16:26:40.757Z,19.40
2023-05-02T16:29:08.507Z,19.50
2023-05-02T16:31:36.400Z,19.50
2023-05-02T16:34:04.181Z,19.50
2023-05-02T16:36:33.267Z,19.50
2023-05-02T16:39:00.987Z,19.40
2023-05-02T16:41:28.707Z,19.40
2023-05-02T16:43:56.367Z,19.30
2023-05-02T16:46:24.185Z,19.20
2023-05-02T16:48:51.951Z,19.10
2023-05-02T16:51:19.654Z,19.00
2023-05-02T16:53:48.709Z,19.00
2023-05-02T16:56:16.498Z,19.00
2023-05-02T16:58:44.426Z,18.90
2023-05-02T17:01:12.149Z,18.90
2023-05-02T17:03:40.865Z,18.90
2023-05-02T17:06:08.902Z,18.80
2023-05-02T17:08:36.732Z,18.80
2023-05-02T17:11:07.520Z,18.70
2023-05-02T17:13:35.483Z,18.60
2023-05-02T17:16:03.388Z,18.60
2023-05-02T17:18:31.309Z,18.50
2023-05-02T17:21:03.848Z,18.40
2023-05-02T17:23:32.921Z,18.40
2023-05-02T17:26:05.329Z,18.40
2023-05-02T17:28:36.218Z,18.40
2023-05-02T17:31:07.469Z,18.30
2023-05-02T17:33:36.488Z,18.20
2023-05-02T17:36:04.821Z,18.10
2023-05-02T17:38:33.034Z,18.00
2023-05-02T17:41:00.912Z,17.90
2023-05-02T17:43:28.671Z,17.90
2023-05-02T17:45:57.723Z,17.80
2023-05-02T17:48:25.557Z,17.80
2023-05-02T17:50:55.351Z,17.80
2023-05-02T17:53:23.516Z,17.70
2023-05-02T17:55:51.233Z,17.60
2023-05-02T17:58:18.926Z,17.60
2023-05-02T18:00:46.638Z,17.60
2023-05-02T18:03:15.882Z,17.50
2023-05-02T18:05:47.173Z,17.50
2023-05-02T18:08:14.887Z,17.40
2023-05-02T18:10:42.766Z,17.30
2023-05-02T18:13:11.103Z,17.20
2023-05-02T18:15:38.822Z,17.10
2023-05-02T18:18:06.981Z,17.00
2023-05-02T18:20:40.577Z,17.00
2023-05-02T18:23:08.274Z,16.90
2023-05-02T18:25:36.307Z,16.90
2023-05-02T18:28:04.107Z,16.80
2023-05-02T18:30:38.153Z,16.70
2023-05-02T18:33:10.866Z,16.70
2023-05-02T18:35:47.392Z,16.70
2023-05-02T18:38:15.522Z,16.60
2023-05-02T18:40:46.234Z,16.50
2023-05-02T18:43:16.603Z,16.40
2023-05-02T18:45:46.074Z,16.20
2023-05-02T18:48:15.030Z,16.00
2023-05-02T18:50:44.138Z,15.90
2023-05-02T18:53:12.067Z,15.80
2023-05-02T18:55:41.001Z,15.60
2023-05-02T18:58:08.784Z,15.40
2023-05-02T19:00:39.519Z,15.30
2023-05-02T19:03:09.524Z,15.10
2023-05-02T19:05:38.495Z,15.10
2023-05-02T19:08:09.930Z,14.90
2023-05-02T19:10:37.835Z,14.80
2023-05-02T19:13:08.242Z,14.70
2023-05-02T19:15:36.121Z,14.50
2023-05-02T19:18:04.266Z,14.40
2023-05-02T19:20:35.671Z,14.30
2023-05-02T19:23:18.933Z,14.20
2023-05-02T19:25:49.949Z,14.10
2023-05-02T19:28:17.776Z,14.00
2023-05-02T19:30:45.902Z,13.90
2023-05-02T19:33:13.706Z,13.90
2023-05-02T19:35:41.574Z,13.70
2023-05-02T19:38:09.338Z,13.60
2023-05-02T19:40:37.242Z,13.50
2023-05-02T19:43:06.306Z,13.30
2023-05-02T19:45:38.973Z,13.30
2023-05-02T19:48:07.955Z,13.20
2023-05-02T19:50:38.240Z,13.10
2023-05-02T19:53:05.950Z,13.10
2023-05-02T19:55:34.878Z,13.00
2023-05-02T19:58:05.414Z,13.00
2023-05-02T20:00:34.919Z,12.90
2023-05-02T20:03:06.843Z,12.70
2023-05-02T20:05:35.017Z,12.70
2023-05-02T20:08:02.841Z,12.70
2023-05-02T20:10:34.249Z,12.70
2023-05-02T20:13:02.103Z,12.60
2023-05-02T20:15:29.988Z,12.60
2023-05-02T20:18:02.092Z,12.50
2023-05-02T20:20:30.856Z,12.50
2023-05-02T20:22:59.149Z,12.40
2023-05-02T20:25:28.953Z,12.30
2023-05-02T20:27:56.807Z,12.30
2023-05-02T20:30:24.624Z,12.30
2023-05-02T20:32:52.690Z,12.20
2023-05-02T20:35:21.885Z,12.20
2023-05-02T20:37:49.662Z,12.10
2023-05-02T20:40:18.876Z,12.10
2023-05-02T20:42:48.257Z,12.10
2023-05-02T20:45:16.443Z,12.10
2023-05-02T20:47:44.181Z,12.10
2023-05-02T20:50:12.688Z,12.00
2023-05-02T20:52:42.720Z,11.90
2023-05-02T20:55:10.843Z,11.90
2023-05-02T20:57:39.177Z,11.80
2023-05-02T21:00:12.381Z,11.80
2023-05-02T21:02:41.844Z,11.80
2023-05-02T21:05:09.952Z,11.80
2023-05-02T21:07:40.292Z,11.80
2023-05-02T21:10:10.905Z,11.80
2023-05-02T21:12:39.576Z,11.70
2023-05-02T21:15:10.830Z,11.60
2023-05-02T21:17:40.339Z,11.60
2023-05-02T21:20:10.515Z,11.50
2023-05-02T21:22:39.152Z,11.50
2023-05-02T21:25:08.696Z,11.40
2023-05-02T21:27:36.748Z,11.40
2023-05-02T21:30:05.084Z,11.40
2023-05-02T21:32:33.542Z,11.40
2023-05-02T21:35:01.632Z,11.40
2023-05-02T21:37:31.291Z,11.30
2023-05-02T21:39:59.121Z,11.40
2023-05-02T21:42:28.296Z,11.40
2023-05-02T21:44:56.088Z,11.30
2023-05-02T21:47:23.837Z,11.30
2023-05-02T21:49:51.762Z,11.30
2023-05-02T21:52:19.431Z,11.30
2023-05-02T21:54:49.875Z,11.30
2023-05-02T21:57:17.675Z,11.20
2023-05-02T21:59:46.672Z,11.10
2023-05-02T22:02:14.571Z,11.10
2023-05-02T22:04:46.203Z,11.10
2023-05-02T22:07:14.078Z,11.10
2023-05-02T22:09:41.848Z,11.10
2023-05-02T22:12:09.586Z,11.00
2023-05-02T22:14:44.958Z,11.00
2023-05-02T22:17:18.410Z,10.90
2023-05-02T22:19:49.361Z,10.90
2023-05-02T22:22:17.033Z,10.80
2023-05-02T22:24:44.800Z,10.70
2023-05-02T22:27:12.482Z,10.70
2023-05-02T22:29:40.586Z,10.60
2023-05-02T22:32:08.325Z,10.60
2023-05-02T22:34:37.482Z,10.60
2023-05-02T22:37:05.228Z,10.60
2023-05-02T22:39:32.925Z,10.50
2023-05-02T22:42:01.489Z,10.40
2023-05-02T22:44:29.205Z,10.30
2023-05-02T22:46:57.431Z,10.30
2023-05-02T22:49:25.453Z,10.10
2023-05-02T22:52:09.520Z,9.90
2023-05-02T22:54:37.247Z,9.80
2023-05-02T22:57:05.089Z,9.80
2023-05-02T22:59:33.004Z,9.80
2023-05-02T23:02:01.365Z,9.90
2023-05-02T23:04:29.101Z,9.90
2023-05-02T23:06:56.796Z,10.00
2023-05-02T23:09:25.909Z,9.90
2023-05-02T23:11:53.571Z,9.90
2023-05-02T23:14:22.763Z,9.80
2023-05-02T23:16:53.492Z,9.80
2023-05-02T23:19:21.283Z,9.80
2023-05-02T23:21:49.008Z,9.80
2023-05-02T23:24:16.797Z,9.80
2023-05-02T23:26:45.891Z,9.80
2023-05-02T23:29:13.866Z,9.70
2023-05-02T23:31:41.908Z,9.60
2023-05-02T23:34:10.465Z,9.60
2023-05-02T23:36:38.144Z,9.60
2023-05-02T23:39:06.093Z,9.60
2023-05-02T23:41:34.145Z,9.60
2023-05-02T23:44:03.218Z,9.50
2023-05-02T23:46:31.026Z,9.40
2023-05-02T23:48:58.779Z,9.30
2023-05-02T23:51:27.606Z,9.30
2023-05-02T23:53:55.328Z,9.20
2023-05-02T23:56:23.036Z,9.30
2023-05-02T23:58:50.710Z,9.30
